LFOB 250900Z AUTO 20004KT 140V260 CAVOK 25/20 Q1016 NOSIG

ElémentsDécodage
LFOB Station météo située sur l'aérodrome de BEAUVAIS Tillé
250900Z émis le 25 du mois à 09h00 UTC
AUTO Bulletin édité par un automate
20004KT vent du 200°, 04 noeuds
140V260 vent de direction variable entre 140° et 260°
CAVOK Ceiling And Visibility OK
- Visibilité de 10 Km ou plus
- Pas de nuage au-dessous de 1500m ou au-dessous de l'altitude minimale du secteur la plus élevée (si>1500m) et absence de CB
- pas de temps présent significatif
25/20 température 25°C, point de rosée 20°C
 soit une humidité relative de 74%
Q1016 la pression au niveau de la mer (QNH) est de 1016 hPa
NOSIG Pas de changement significatif prévu au cours des deux heures suivant l'heure de l'observation